首页
METAR-TAF:

METAR-TAF

机场 :

索哈傑, 埃及

纬度: 26-20-25N, 经度: 31-44-20E, 海拔: 70米

当前天气观测

该预报发布于50分钟前的09:00 UTC
风速14节,风向北转西北
温度 33°C
湿度 20%
气压 1010 hPa
能见度10公里或以上
1500米以下无云,无积雨云

METAR: HESG 300900Z 33014KT CAVOK 33/07 Q1010 NOSIG

时间: 11:50 (09:50 UTC)

预报

该预报发布于4小时和50分钟前的05:00 UTC
预报有效从30日的 06点(UTC)到 31日的 12点(UTC)
风速8节,风向北转西北
能见度10公里或以上
1500米以下无云,无积雨云

TAF: HESG 300500Z 3006/3112 34008KT CAVOK

超过4000个机场的气象观测和天气预报(METAR&TAF报告)。

可查询的气象台以黄色和红色小点在地图上表示。

将鼠标移到小点上方,可查看气象台名称。

然后点击查看天气观测和预报。

如需切换地图:点击带黑十字的绿色按钮放大地图;点击带横线的绿色按钮缩小地图;或者点击绿色箭头查看邻近地区的地图。


METAR-TAF: